الصفحة الرئيسية
METAR-TAF:

METAR-TAF

مطار :

مطار انجمينا الدولي

انجمينا, تشاد

دائرة عرض: 12-08N, خط طول: 015-02E, ارتفاع: 295 متر

مراقبة الطقس الحالي

تاريخ ووقت الإصدار 1ساعة و 6 دقيقة قبل الساعة 08:00UTC
ريح 11 عقدة من الجنوب الغربي
درجة الحرارة 27°درجة مئوية
الرطوبة 79%
ضغط 1013 hPa
الرؤية 10 كم أو أكثر
الغيوم لا تقل 1500 م ولا وجود لمزنة ركامية السحاب الأسود

METAR: FTTJ 120800Z 22011KT CAVOK 27/23 Q1013 NOSIG

زمن: 10:06 (09:06 UTC)

توقعات

تاريخ ووقت الإصدار 4ساعات و 6 دقيقة قبل الساعة 05:00UTC
التوقعات صالحة من12 الساعة 06 UTC إلى 13 الساعة 12 UTC
ريح 10 عقدة من الغرب/الجنوب الغربي
الرؤية 10 كم أو أكثر
غيوم متفرقة على ارتفاع 3000 قدم
مؤقت
من 12 الساعة 14 UTC إلى 12 الساعة 20 UTC
الرؤية: 4000 متر
عاصفة رعدية, مطر
نظرية الاحتمالات 30% :
مؤقت
من 13 الساعة 03 UTC إلى 13 الساعة 07 UTC
الرؤية: 4000 متر
عاصفة رعدية, مطر

TAF: FTTJ 120500Z 1206/1312 24010KT 9999 SCT030 TEMPO 1214/1220 4000 TSRA PROB30 TEMPO 1303/1307 4000 TSRA

أرصاد الطقس والتوقعات من أكثر من 4000 مطار (تقارير الطقس للمطار METAR والتنبؤ بالطقس بالمطارTAF).

المحطات المتاحة هي النقط الصفراء والحمراء على الخريطة.

حرك المؤشر فوق النقطة لمعرفة اسم المحطة.

ثم انقر لمعرفة أرصاد وتوقعات الطقس.

لتغيير الخارطة: اضغط على الأزرار الخضراء مع رمز الصليب الأسود للتكبير. على الزر الأخضر مع شرطة للتصغير، أو على الأسهم الخضراء للخرائط المجاورة.


METAR-TAF: